createdAt,value
2022-12-20T00:01:54.143Z,6.60
2022-12-20T00:04:22.009Z,6.60
2022-12-20T00:06:49.808Z,6.70
2022-12-20T00:09:17.718Z,6.70
2022-12-20T00:11:45.451Z,6.70
2022-12-20T00:14:13.172Z,6.70
2022-12-20T00:16:42.203Z,6.70
2022-12-20T00:19:11.819Z,6.70
2022-12-20T00:21:39.769Z,6.70
2022-12-20T00:24:08.560Z,6.70
2022-12-20T00:26:37.918Z,6.70
2022-12-20T00:29:06.216Z,6.70
2022-12-20T00:31:34.277Z,6.80
2022-12-20T00:34:03.460Z,6.80
2022-12-20T00:36:33.079Z,6.80
2022-12-20T00:39:01.629Z,6.80
2022-12-20T00:41:30.867Z,6.80
2022-12-20T00:43:59.001Z,6.80
2022-12-20T00:46:27.496Z,6.80
2022-12-20T00:48:55.848Z,6.80
2022-12-20T00:51:26.878Z,6.80
2022-12-20T00:53:55.234Z,6.80
2022-12-20T00:56:23.626Z,6.80
2022-12-20T00:58:54.361Z,6.80
2022-12-20T01:01:24.422Z,6.80
2022-12-20T01:03:53.557Z,6.80
2022-12-20T01:06:22.159Z,6.80
2022-12-20T01:08:51.638Z,6.80
2022-12-20T01:11:20.789Z,6.80
2022-12-20T01:13:50.679Z,6.80
2022-12-20T01:16:20.109Z,6.80
2022-12-20T01:18:48.591Z,6.80
2022-12-20T01:21:18.081Z,6.80
2022-12-20T01:23:46.528Z,6.80
2022-12-20T01:26:19.000Z,6.80
2022-12-20T01:28:48.046Z,6.80
2022-12-20T01:31:17.754Z,6.80
2022-12-20T01:33:46.528Z,6.80
2022-12-20T01:36:16.984Z,6.80
2022-12-20T01:38:45.041Z,6.80
2022-12-20T01:41:18.333Z,6.80
2022-12-20T01:43:52.110Z,6.80
2022-12-20T01:46:21.824Z,6.80
2022-12-20T01:48:54.490Z,6.70
2022-12-20T01:51:23.630Z,6.70
2022-12-20T01:53:56.319Z,6.70
2022-12-20T01:56:25.571Z,6.70
2022-12-20T01:58:55.876Z,6.70
2022-12-20T02:01:25.149Z,6.70
2022-12-20T02:03:55.645Z,6.60
2022-12-20T02:06:26.034Z,6.60
2022-12-20T02:08:57.241Z,6.60
2022-12-20T02:11:49.814Z,6.60
2022-12-20T02:14:35.557Z,6.60
2022-12-20T02:17:11.454Z,6.60
2022-12-20T02:20:02.126Z,6.60
2022-12-20T02:22:45.711Z,6.60
2022-12-20T02:25:41.645Z,6.60
2022-12-20T02:28:29.758Z,6.60
2022-12-20T02:31:01.655Z,6.50
2022-12-20T02:33:29.825Z,6.50
2022-12-20T02:35:57.662Z,6.50
2022-12-20T02:38:31.163Z,6.50
2022-12-20T02:41:03.105Z,6.50
2022-12-20T02:43:51.140Z,6.50
2022-12-20T02:46:21.916Z,6.50
2022-12-20T02:48:52.158Z,6.50
2022-12-20T02:51:22.430Z,6.50
2022-12-20T02:53:50.901Z,6.50
2022-12-20T02:56:24.140Z,6.50
2022-12-20T02:58:54.769Z,6.50
2022-12-20T03:01:27.533Z,6.50
2022-12-20T03:03:56.127Z,6.50
2022-12-20T03:06:23.845Z,6.60
2022-12-20T03:08:51.558Z,6.60
2022-12-20T03:11:20.260Z,6.60
2022-12-20T03:13:48.139Z,6.60
2022-12-20T03:16:16.420Z,6.60
2022-12-20T03:18:46.078Z,6.60
2022-12-20T03:21:14.325Z,6.60
2022-12-20T03:23:42.033Z,6.60
2022-12-20T03:26:09.769Z,6.60
2022-12-20T03:28:37.474Z,6.60
2022-12-20T03:31:05.218Z,6.60
2022-12-20T03:33:32.987Z,6.60
2022-12-20T03:36:02.019Z,6.60
2022-12-20T03:38:29.764Z,6.60
2022-12-20T03:40:57.465Z,6.60
2022-12-20T03:43:25.181Z,6.60
2022-12-20T03:45:52.939Z,6.60
2022-12-20T03:48:20.696Z,6.60
2022-12-20T03:50:48.434Z,6.60
2022-12-20T03:53:17.457Z,6.70
2022-12-20T03:55:45.805Z,6.70
2022-12-20T03:58:13.575Z,6.70
2022-12-20T04:00:41.291Z,6.70
2022-12-20T04:03:09.155Z,6.70
2022-12-20T04:05:36.949Z,6.70
2022-12-20T04:08:04.961Z,6.70
2022-12-20T04:10:54.039Z,6.70
2022-12-20T04:13:21.732Z,6.70
2022-12-20T04:15:49.484Z,6.70
2022-12-20T04:18:17.228Z,6.70
2022-12-20T04:20:44.919Z,6.70
2022-12-20T04:23:12.639Z,6.70
2022-12-20T04:25:41.676Z,6.70
2022-12-20T04:28:09.346Z,6.70
2022-12-20T04:30:37.020Z,6.70
2022-12-20T04:33:04.760Z,6.70
2022-12-20T04:35:32.756Z,6.70
2022-12-20T04:38:00.464Z,6.80
2022-12-20T04:40:28.153Z,6.70
2022-12-20T04:42:57.207Z,6.70
2022-12-20T04:45:24.902Z,6.70
2022-12-20T04:47:52.786Z,6.70
2022-12-20T04:50:20.525Z,6.70
2022-12-20T04:53:05.674Z,6.70
2022-12-20T04:55:37.880Z,6.70
2022-12-20T04:58:08.045Z,6.70
2022-12-20T05:00:36.214Z,6.70
2022-12-20T05:03:04.120Z,6.70
2022-12-20T05:05:32.220Z,6.80
2022-12-20T05:07:59.983Z,6.80
2022-12-20T05:10:27.713Z,6.80
2022-12-20T05:12:55.447Z,6.80
2022-12-20T05:15:24.511Z,6.80
2022-12-20T05:17:52.612Z,6.80
2022-12-20T05:20:20.354Z,6.80
2022-12-20T05:23:05.659Z,6.80
2022-12-20T05:25:50.788Z,6.80
2022-12-20T05:28:18.521Z,6.80
2022-12-20T05:30:47.568Z,6.80
2022-12-20T05:33:15.291Z,6.80
2022-12-20T05:35:42.993Z,6.80
2022-12-20T05:38:10.711Z,6.80
2022-12-20T05:40:38.516Z,6.80
2022-12-20T05:43:06.511Z,6.80
2022-12-20T05:45:35.242Z,6.80
2022-12-20T05:48:04.336Z,6.80
2022-12-20T05:50:33.222Z,6.80
2022-12-20T05:53:04.625Z,6.80
2022-12-20T05:55:35.812Z,6.80
2022-12-20T05:58:03.601Z,6.80
2022-12-20T06:00:31.332Z,6.80
2022-12-20T06:02:59.229Z,6.80
2022-12-20T06:05:28.461Z,6.80
2022-12-20T06:07:56.201Z,6.80
2022-12-20T06:10:24.051Z,6.80
2022-12-20T06:12:52.108Z,6.80
2022-12-20T06:15:19.945Z,6.80
2022-12-20T06:17:47.912Z,6.80
2022-12-20T06:20:15.691Z,6.90
2022-12-20T06:22:45.074Z,6.90
2022-12-20T06:25:15.441Z,6.90
2022-12-20T06:27:43.763Z,6.90
2022-12-20T06:30:12.735Z,6.90
2022-12-20T06:32:40.472Z,6.90
2022-12-20T06:35:09.062Z,6.90
2022-12-20T06:37:37.351Z,6.90
2022-12-20T06:40:07.880Z,6.90
2022-12-20T06:42:35.583Z,6.90
2022-12-20T06:45:03.344Z,6.90
2022-12-20T06:47:31.122Z,6.90
2022-12-20T06:49:58.865Z,6.90
2022-12-20T06:52:26.612Z,6.90
2022-12-20T06:54:54.413Z,6.90
2022-12-20T06:57:23.539Z,6.90
2022-12-20T06:59:51.226Z,6.90
2022-12-20T07:02:19.130Z,6.90
2022-12-20T07:04:47.101Z,6.90
2022-12-20T07:07:14.934Z,6.90
2022-12-20T07:09:42.725Z,6.90
2022-12-20T07:12:10.900Z,6.90
2022-12-20T07:14:39.929Z,6.90
2022-12-20T07:17:08.359Z,6.90
2022-12-20T07:19:37.179Z,6.90
2022-12-20T07:22:05.737Z,6.90
2022-12-20T07:24:33.516Z,6.90
2022-12-20T07:27:01.331Z,6.90
2022-12-20T07:29:29.350Z,6.90
2022-12-20T07:31:58.498Z,6.90
2022-12-20T07:34:26.269Z,6.90
2022-12-20T07:36:53.998Z,6.90
2022-12-20T07:39:21.744Z,6.90
2022-12-20T07:41:49.447Z,6.90
2022-12-20T07:44:17.171Z,6.90
2022-12-20T07:46:45.003Z,6.90
2022-12-20T07:49:14.352Z,6.90
2022-12-20T07:51:46.386Z,6.90
2022-12-20T07:54:18.752Z,6.90
2022-12-20T07:56:49.139Z,6.90
2022-12-20T07:59:20.283Z,6.90
2022-12-20T08:01:48.915Z,6.90
2022-12-20T08:04:20.999Z,6.90
2022-12-20T08:06:50.079Z,6.90
2022-12-20T08:09:18.168Z,6.90
2022-12-20T08:11:48.519Z,6.90
2022-12-20T08:14:17.837Z,7.00
2022-12-20T08:16:46.408Z,7.00
2022-12-20T08:19:14.224Z,7.00
2022-12-20T08:21:43.280Z,7.00
2022-12-20T08:24:11.652Z,7.00
2022-12-20T08:26:39.785Z,7.00
2022-12-20T08:29:07.854Z,7.00
2022-12-20T08:31:38.913Z,7.00
2022-12-20T08:34:07.669Z,7.00
2022-12-20T08:36:35.417Z,7.00
2022-12-20T08:39:05.316Z,7.10
2022-12-20T08:41:33.115Z,7.10
2022-12-20T08:44:00.829Z,7.10
2022-12-20T08:46:28.575Z,7.10
2022-12-20T08:48:56.349Z,7.10
2022-12-20T08:51:24.215Z,7.10
2022-12-20T08:53:52.961Z,7.10
2022-12-20T08:56:22.175Z,7.10
2022-12-20T08:58:50.042Z,7.10
2022-12-20T09:01:20.411Z,7.10
2022-12-20T09:03:48.946Z,7.20
2022-12-20T09:06:18.771Z,7.20
2022-12-20T09:08:46.961Z,7.20
2022-12-20T09:11:16.393Z,7.20
2022-12-20T09:13:47.325Z,7.20
2022-12-20T09:16:17.623Z,7.20
2022-12-20T09:18:45.435Z,7.20
2022-12-20T09:21:13.246Z,7.20
2022-12-20T09:23:41.196Z,7.20
2022-12-20T09:26:11.187Z,7.30
2022-12-20T09:28:39.303Z,7.30
2022-12-20T09:31:10.913Z,7.30
2022-12-20T09:33:38.950Z,7.30
2022-12-20T09:36:07.630Z,7.30
2022-12-20T09:38:35.354Z,7.30
2022-12-20T09:41:05.534Z,7.30
2022-12-20T09:43:34.774Z,7.30
2022-12-20T09:46:04.232Z,7.30
2022-12-20T09:48:36.467Z,7.30
2022-12-20T09:51:13.413Z,7.30
2022-12-20T09:53:50.539Z,7.30
2022-12-20T09:56:27.382Z,7.30
2022-12-20T09:59:02.543Z,7.30
2022-12-20T10:01:38.821Z,7.30
2022-12-20T10:04:20.239Z,7.30
2022-12-20T10:07:03.101Z,7.40
2022-12-20T10:09:52.727Z,7.40
2022-12-20T10:12:32.651Z,7.40
2022-12-20T10:15:14.319Z,7.50
2022-12-20T10:17:53.544Z,7.50
2022-12-20T10:20:37.824Z,7.50
2022-12-20T10:23:13.402Z,7.50
2022-12-20T10:25:42.424Z,7.60
2022-12-20T10:28:15.127Z,7.60
2022-12-20T10:30:43.324Z,7.60
2022-12-20T10:33:20.117Z,7.60
2022-12-20T10:35:50.687Z,7.60
2022-12-20T10:38:18.962Z,7.60
2022-12-20T10:43:43.691Z,7.60
2022-12-20T10:46:13.088Z,7.60
2022-12-20T10:48:42.816Z,7.60
2022-12-20T10:51:18.167Z,7.60
2022-12-20T10:53:58.033Z,7.70
2022-12-20T10:56:28.459Z,7.60
2022-12-20T10:58:59.205Z,7.60
2022-12-20T11:01:30.509Z,7.60
2022-12-20T11:04:02.191Z,7.60
2022-12-20T11:06:42.890Z,7.70
2022-12-20T11:09:29.619Z,7.70
2022-12-20T11:12:02.513Z,7.70
2022-12-20T11:14:38.345Z,7.70
2022-12-20T11:17:29.725Z,7.70
2022-12-20T11:20:21.287Z,7.80
2022-12-20T11:22:58.412Z,7.80
2022-12-20T11:25:40.338Z,7.80
2022-12-20T11:28:28.413Z,7.80
2022-12-20T11:31:06.081Z,7.80
2022-12-20T11:34:03.286Z,7.80
2022-12-20T11:36:41.680Z,7.80
2022-12-20T11:39:16.464Z,7.80
2022-12-20T11:41:51.616Z,7.90
2022-12-20T11:44:27.620Z,7.90
2022-12-20T11:47:09.041Z,7.90
2022-12-20T11:49:56.741Z,7.90
2022-12-20T11:52:35.836Z,7.90
2022-12-20T11:55:17.770Z,7.90
2022-12-20T11:58:16.858Z,7.90
2022-12-20T12:00:42.678Z,7.90
2022-12-20T12:03:17.089Z,7.90
2022-12-20T12:05:47.660Z,8.00
2022-12-20T12:08:19.908Z,8.00
2022-12-20T12:10:57.226Z,7.90
2022-12-20T12:13:28.190Z,8.00
2022-12-20T12:16:04.095Z,8.00
2022-12-20T12:18:33.723Z,8.00
2022-12-20T12:21:09.340Z,8.00
2022-12-20T12:23:44.132Z,8.00
2022-12-20T12:26:19.654Z,8.00
2022-12-20T12:28:54.237Z,8.00
2022-12-20T12:31:27.867Z,8.00
2022-12-20T12:34:07.561Z,8.00
2022-12-20T12:37:07.946Z,8.00
2022-12-20T12:40:00.716Z,8.00
2022-12-20T12:43:00.225Z,8.00
2022-12-20T12:45:29.873Z,8.00
2022-12-20T12:48:02.410Z,8.10
2022-12-20T12:50:33.575Z,8.10
2022-12-20T12:53:08.713Z,8.00
2022-12-20T12:55:45.407Z,8.10
2022-12-20T12:58:35.783Z,8.10
2022-12-20T13:01:08.086Z,8.10
2022-12-20T13:03:46.644Z,8.10
2022-12-20T13:06:56.788Z,8.10
2022-12-20T13:09:40.391Z,8.10
2022-12-20T13:12:53.337Z,8.10
2022-12-20T13:15:52.173Z,8.10
2022-12-20T13:18:38.017Z,8.10
2022-12-20T13:21:30.455Z,8.10
2022-12-20T13:24:42.475Z,8.10
2022-12-20T13:27:22.251Z,8.10
2022-12-20T13:29:57.780Z,8.10
2022-12-20T13:32:56.679Z,8.10
2022-12-20T13:35:41.908Z,8.10
2022-12-20T13:38:42.145Z,8.10
2022-12-20T13:41:35.951Z,8.10
2022-12-20T13:44:42.610Z,8.10
2022-12-20T13:47:35.496Z,8.10
2022-12-20T13:50:24.707Z,8.00
2022-12-20T13:52:54.588Z,8.10
2022-12-20T13:55:33.102Z,8.10
2022-12-20T13:58:07.131Z,8.10
2022-12-20T14:00:35.511Z,8.00
2022-12-20T14:03:03.941Z,8.00
2022-12-20T14:05:38.748Z,8.00
2022-12-20T14:08:09.068Z,8.00
2022-12-20T14:10:37.443Z,8.00
2022-12-20T14:13:19.615Z,8.00
2022-12-20T14:15:47.364Z,8.00
2022-12-20T14:18:19.852Z,8.00
2022-12-20T14:20:52.184Z,8.00
2022-12-20T14:23:23.486Z,8.00
2022-12-20T14:25:53.027Z,8.00
2022-12-20T14:28:29.962Z,8.00
2022-12-20T14:30:59.850Z,8.00
2022-12-20T14:33:31.944Z,8.00
2022-12-20T14:36:09.997Z,7.90
2022-12-20T14:38:38.179Z,8.00
2022-12-20T14:41:06.160Z,8.00
2022-12-20T14:43:37.593Z,7.90
2022-12-20T14:46:20.107Z,8.00
2022-12-20T14:48:48.225Z,8.00
2022-12-20T14:51:21.798Z,7.90
2022-12-20T14:53:53.136Z,7.90
2022-12-20T14:56:31.363Z,7.90
2022-12-20T14:59:17.159Z,7.90
2022-12-20T15:01:45.200Z,7.90
2022-12-20T15:04:26.444Z,7.90
2022-12-20T15:06:55.536Z,7.90
2022-12-20T15:09:23.460Z,7.90
2022-12-20T15:11:52.465Z,7.90
2022-12-20T15:14:32.837Z,7.90
2022-12-20T15:17:00.691Z,7.90
2022-12-20T15:19:28.741Z,7.90
2022-12-20T15:21:57.815Z,7.90
2022-12-20T15:24:27.341Z,7.90
2022-12-20T15:26:55.255Z,7.90
2022-12-20T15:29:24.995Z,7.90
2022-12-20T15:31:55.524Z,7.90
2022-12-20T15:34:30.927Z,7.90
2022-12-20T15:37:02.345Z,7.90
2022-12-20T15:39:30.480Z,7.90
2022-12-20T15:42:00.761Z,7.90
2022-12-20T15:44:31.538Z,7.90
2022-12-20T15:46:59.358Z,7.90
2022-12-20T15:49:30.974Z,7.90
2022-12-20T15:52:00.657Z,8.00
2022-12-20T15:54:30.742Z,7.90
2022-12-20T15:57:00.054Z,7.90
2022-12-20T16:02:23.330Z,7.90
2022-12-20T16:04:51.423Z,7.90
2022-12-20T16:07:20.627Z,7.90
2022-12-20T16:09:48.333Z,7.90
2022-12-20T16:12:19.243Z,7.90
2022-12-20T16:14:46.974Z,7.90
2022-12-20T16:17:15.421Z,7.90
2022-12-20T16:19:43.494Z,7.90
2022-12-20T16:22:16.485Z,7.90
2022-12-20T16:24:45.902Z,7.90
2022-12-20T16:27:13.868Z,7.90
2022-12-20T16:29:41.978Z,7.80
2022-12-20T16:32:15.381Z,7.80
2022-12-20T16:34:43.242Z,7.80
2022-12-20T16:37:12.313Z,7.80
2022-12-20T16:39:40.076Z,7.90
2022-12-20T16:42:13.214Z,7.90
2022-12-20T16:44:42.684Z,7.90
2022-12-20T16:47:10.763Z,7.90
2022-12-20T16:49:38.510Z,7.90
2022-12-20T16:52:07.288Z,7.80
2022-12-20T16:54:34.973Z,7.90
2022-12-20T16:57:02.642Z,7.90
2022-12-20T16:59:31.693Z,7.90
2022-12-20T17:01:59.527Z,7.90
2022-12-20T17:04:27.523Z,7.90
2022-12-20T17:06:55.468Z,7.90
2022-12-20T17:12:15.506Z,7.90
2022-12-20T17:14:44.860Z,7.90
2022-12-20T17:17:12.661Z,7.90
2022-12-20T17:19:40.332Z,7.90
2022-12-20T17:24:54.255Z,7.90
2022-12-20T17:27:21.987Z,7.90
2022-12-20T17:29:51.996Z,7.90
2022-12-20T17:32:22.024Z,7.90
2022-12-20T17:34:49.996Z,7.90
2022-12-20T17:37:18.464Z,7.90
2022-12-20T17:39:46.302Z,7.90
2022-12-20T17:42:14.411Z,7.90
2022-12-20T17:44:42.135Z,7.90
2022-12-20T17:47:11.448Z,7.90
2022-12-20T17:49:39.288Z,7.90
2022-12-20T17:52:07.000Z,7.90
2022-12-20T17:54:40.023Z,7.90
2022-12-20T17:57:13.723Z,7.90
2022-12-20T17:59:41.462Z,7.90
2022-12-20T18:02:21.435Z,7.90
2022-12-20T18:04:49.498Z,7.90
2022-12-20T18:07:17.377Z,7.90
2022-12-20T18:09:47.612Z,7.90
2022-12-20T18:12:15.416Z,7.90
2022-12-20T18:14:43.144Z,7.90
2022-12-20T18:17:10.938Z,7.90
2022-12-20T18:19:40.713Z,7.90
2022-12-20T18:22:08.436Z,7.90
2022-12-20T18:24:36.344Z,7.90
2022-12-20T18:27:04.144Z,7.90
2022-12-20T18:29:32.057Z,7.90
2022-12-20T18:31:59.821Z,7.90
2022-12-20T18:34:27.582Z,7.90
2022-12-20T18:36:56.628Z,7.90
2022-12-20T18:39:24.302Z,7.90
2022-12-20T18:41:51.969Z,7.90
2022-12-20T18:44:19.917Z,7.90
2022-12-20T18:46:47.623Z,7.90
2022-12-20T18:49:15.324Z,7.90
2022-12-20T18:51:43.747Z,7.90
2022-12-20T18:54:14.445Z,7.90
2022-12-20T18:56:42.223Z,7.90
2022-12-20T18:59:12.709Z,7.90
2022-12-20T19:01:42.805Z,7.90
2022-12-20T19:04:11.555Z,7.90
2022-12-20T19:06:39.643Z,7.90
2022-12-20T19:09:09.471Z,7.90
2022-12-20T19:11:39.319Z,7.90
2022-12-20T19:14:07.979Z,7.90
2022-12-20T19:16:36.414Z,7.90
2022-12-20T19:19:04.734Z,7.90
2022-12-20T19:21:34.046Z,8.00
2022-12-20T19:24:05.077Z,7.90
2022-12-20T19:26:32.857Z,7.90
2022-12-20T19:29:03.059Z,7.90
2022-12-20T19:31:32.949Z,8.00
2022-12-20T19:34:02.717Z,8.00
2022-12-20T19:36:32.135Z,8.00
2022-12-20T19:39:01.667Z,8.00
2022-12-20T19:41:31.966Z,8.00
2022-12-20T19:44:01.057Z,8.00
2022-12-20T19:46:30.167Z,8.00
2022-12-20T19:48:59.298Z,8.00
2022-12-20T19:51:28.841Z,8.00
2022-12-20T19:53:57.890Z,8.00
2022-12-20T19:56:27.677Z,8.00
2022-12-20T19:58:56.125Z,8.00
2022-12-20T20:01:27.402Z,8.00
2022-12-20T20:03:56.850Z,8.00
2022-12-20T20:06:25.429Z,8.00
2022-12-20T20:08:53.350Z,8.00
2022-12-20T20:11:21.320Z,8.00
2022-12-20T20:13:49.048Z,8.00
2022-12-20T20:16:21.899Z,8.00
2022-12-20T20:18:51.778Z,8.00
2022-12-20T20:21:23.357Z,8.10
2022-12-20T20:23:52.294Z,8.10
2022-12-20T20:26:21.841Z,8.10
2022-12-20T20:28:49.846Z,8.10
2022-12-20T20:31:19.237Z,8.10
2022-12-20T20:33:47.306Z,8.10
2022-12-20T20:36:17.797Z,8.10
2022-12-20T20:38:46.123Z,8.10
2022-12-20T20:41:14.234Z,8.10
2022-12-20T20:43:42.185Z,8.10
2022-12-20T20:46:12.240Z,8.10
2022-12-20T20:48:41.024Z,8.10
2022-12-20T20:51:08.829Z,8.10
2022-12-20T20:53:38.056Z,8.10
2022-12-20T20:56:07.142Z,8.10
2022-12-20T20:58:35.659Z,8.10
2022-12-20T21:01:05.813Z,8.10
2022-12-20T21:03:33.837Z,8.10
2022-12-20T21:08:50.965Z,8.20
2022-12-20T21:11:18.834Z,8.20
2022-12-20T21:13:46.589Z,8.10
2022-12-20T21:16:19.955Z,8.20
2022-12-20T21:18:50.842Z,8.10
2022-12-20T21:21:18.553Z,8.20
2022-12-20T21:23:47.177Z,8.20
2022-12-20T21:26:17.795Z,8.20
2022-12-20T21:28:45.532Z,8.20
2022-12-20T21:31:15.228Z,8.20
2022-12-20T21:33:44.460Z,8.20
2022-12-20T21:36:14.406Z,8.20
2022-12-20T21:38:42.424Z,8.20
2022-12-20T21:41:13.167Z,8.20
2022-12-20T21:43:42.280Z,8.20
2022-12-20T21:46:11.356Z,8.20
2022-12-20T21:48:39.630Z,8.20
2022-12-20T21:51:09.982Z,8.20
2022-12-20T21:53:43.105Z,8.30
2022-12-20T21:56:11.099Z,8.30
2022-12-20T21:58:38.869Z,8.30
2022-12-20T22:01:09.006Z,8.30
2022-12-20T22:03:38.209Z,8.30
2022-12-20T22:06:06.450Z,8.30
2022-12-20T22:08:35.340Z,8.30
2022-12-20T22:11:05.462Z,8.30
2022-12-20T22:13:40.756Z,8.30
2022-12-20T22:16:12.207Z,8.30
2022-12-20T22:18:40.912Z,8.30
2022-12-20T22:21:11.304Z,8.30
2022-12-20T22:23:39.355Z,8.30
2022-12-20T22:26:09.261Z,8.30
2022-12-20T22:28:37.082Z,8.30
2022-12-20T22:31:08.274Z,8.30
2022-12-20T22:33:38.280Z,8.30
2022-12-20T22:36:07.780Z,8.30
2022-12-20T22:38:35.659Z,8.30
2022-12-20T22:41:10.867Z,8.30
2022-12-20T22:43:38.860Z,8.30
2022-12-20T22:46:07.918Z,8.30
2022-12-20T22:48:37.733Z,8.30
2022-12-20T22:51:10.328Z,8.30
2022-12-20T22:53:38.529Z,8.30
2022-12-20T22:56:07.511Z,8.30
2022-12-20T22:58:35.984Z,8.30
2022-12-20T23:01:06.138Z,8.30
2022-12-20T23:03:34.037Z,8.30
2022-12-20T23:06:05.014Z,8.30
2022-12-20T23:08:35.047Z,8.30
2022-12-20T23:11:21.347Z,8.30
2022-12-20T23:14:05.712Z,8.30
2022-12-20T23:16:33.629Z,8.30
2022-12-20T23:19:02.604Z,8.30
2022-12-20T23:21:49.147Z,8.30
2022-12-20T23:24:17.121Z,8.30
2022-12-20T23:26:45.239Z,8.30
2022-12-20T23:29:14.324Z,8.30
2022-12-20T23:31:42.120Z,8.30
2022-12-20T23:34:09.972Z,8.30
2022-12-20T23:36:39.362Z,8.30
2022-12-20T23:39:07.122Z,8.30
2022-12-20T23:41:34.835Z,8.20
2022-12-20T23:44:05.092Z,8.30
2022-12-20T23:46:33.267Z,8.20
2022-12-20T23:49:01.084Z,8.20
2022-12-20T23:51:28.949Z,8.20
2022-12-20T23:53:58.001Z,8.20
2022-12-20T23:56:25.743Z,8.20
2022-12-20T23:58:55.182Z,8.20
